sensor_id;sensor_type;location;lat;lon;timestamp;pressure;altitude;pressure_sealevel;temperature;humidity
81641;BME280;74020;50.722;-1.944;2024-03-23T00:52:21;101282.25;;;9.59;71.42
81641;BME280;74020;50.722;-1.944;2024-03-23T00:54:47;101279.71;;;9.54;72.45
81641;BME280;74020;50.722;-1.944;2024-03-23T00:57:12;101277.34;;;10.01;72.04
81641;BME280;74020;50.722;-1.944;2024-03-23T00:59:38;101271.15;;;10.54;77.48
81641;BME280;74020;50.722;-1.944;2024-03-23T01:02:03;101272.58;;;9.98;70.21
81641;BME280;74020;50.722;-1.944;2024-03-23T01:04:28;101270.80;;;10.25;71.54
81641;BME280;74020;50.722;-1.944;2024-03-23T01:06:54;101269.72;;;10.12;70.31
81641;BME280;74020;50.722;-1.944;2024-03-23T01:09:19;101268.85;;;9.50;70.71
81641;BME280;74020;50.722;-1.944;2024-03-23T01:11:45;101267.20;;;9.96;69.46
81641;BME280;74020;50.722;-1.944;2024-03-23T01:14:10;101262.17;;;10.12;68.91
81641;BME280;74020;50.722;-1.944;2024-03-23T01:16:35;101261.61;;;10.19;73.66
81641;BME280;74020;50.722;-1.944;2024-03-23T01:19:01;101257.64;;;10.23;70.43
81641;BME280;74020;50.722;-1.944;2024-03-23T01:21:26;101249.75;;;10.22;72.61
81641;BME280;74020;50.722;-1.944;2024-03-23T01:23:52;101245.61;;;10.30;74.21
81641;BME280;74020;50.722;-1.944;2024-03-23T01:26:17;101239.44;;;10.60;74.36
81641;BME280;74020;50.722;-1.944;2024-03-23T01:28:43;101237.22;;;10.25;72.54
81641;BME280;74020;50.722;-1.944;2024-03-23T01:31:08;101239.18;;;10.29;72.79
81641;BME280;74020;50.722;-1.944;2024-03-23T01:33:34;101243.56;;;10.50;72.48
81641;BME280;74020;50.722;-1.944;2024-03-23T01:35:59;101244.76;;;10.27;69.71
81641;BME280;74020;50.722;-1.944;2024-03-23T01:38:25;101247.04;;;9.97;73.80
81641;BME280;74020;50.722;-1.944;2024-03-23T01:40:56;101248.20;;;9.86;70.65
81641;BME280;74020;50.722;-1.944;2024-03-23T01:43:15;101253.88;;;9.83;71.00
81641;BME280;74020;50.722;-1.944;2024-03-23T01:45:41;101253.10;;;9.72;72.93
81641;BME280;74020;50.722;-1.944;2024-03-23T01:48:07;101259.14;;;9.53;69.75
81641;BME280;74020;50.722;-1.944;2024-03-23T01:50:32;101259.57;;;9.70;76.30
81641;BME280;74020;50.722;-1.944;2024-03-23T01:52:57;101257.28;;;9.10;72.30
81641;BME280;74020;50.722;-1.944;2024-03-23T01:55:22;101255.09;;;9.01;71.39
81641;BME280;74020;50.722;-1.944;2024-03-23T01:57:48;101256.34;;;8.89;71.87
81641;BME280;74020;50.722;-1.944;2024-03-23T02:00:14;101255.62;;;8.11;74.33
81641;BME280;74020;50.722;-1.944;2024-03-23T02:02:42;101253.00;;;7.89;75.51
81641;BME280;74020;50.722;-1.944;2024-03-23T02:05:05;101254.04;;;7.95;75.21
81641;BME280;74020;50.722;-1.944;2024-03-23T02:07:30;101254.32;;;7.34;79.19
81641;BME280;74020;50.722;-1.944;2024-03-23T02:09:55;101249.42;;;7.44;77.93
81641;BME280;74020;50.722;-1.944;2024-03-23T02:12:21;101247.20;;;7.20;79.18
81641;BME280;74020;50.722;-1.944;2024-03-23T02:14:46;101242.14;;;7.14;78.90
81641;BME280;74020;50.722;-1.944;2024-03-23T02:17:12;101242.03;;;6.30;83.40
81641;BME280;74020;50.722;-1.944;2024-03-23T02:19:38;101235.74;;;6.48;81.61
81641;BME280;74020;50.722;-1.944;2024-03-23T02:22:03;101236.96;;;6.51;82.03
81641;BME280;74020;50.722;-1.944;2024-03-23T02:24:29;101236.12;;;6.35;82.35
81641;BME280;74020;50.722;-1.944;2024-03-23T02:26:54;101234.87;;;6.36;82.79
81641;BME280;74020;50.722;-1.944;2024-03-23T02:29:20;101232.74;;;6.53;80.94
81641;BME280;74020;50.722;-1.944;2024-03-23T02:31:45;101230.04;;;6.40;82.16
81641;BME280;74020;50.722;-1.944;2024-03-23T02:34:11;101234.88;;;6.13;83.02
81641;BME280;74020;50.722;-1.944;2024-03-23T02:36:36;101232.48;;;5.62;85.83
81641;BME280;74020;50.722;-1.944;2024-03-23T02:39:02;101229.26;;;5.74;85.17
81641;BME280;74020;50.722;-1.944;2024-03-23T02:41:28;101231.53;;;5.65;85.12
81641;BME280;74020;50.722;-1.944;2024-03-23T02:43:53;101230.49;;;5.77;84.52
81641;BME280;74020;50.722;-1.944;2024-03-23T02:46:19;101232.56;;;5.63;86.26
81641;BME280;74020;50.722;-1.944;2024-03-23T02:48:44;101234.99;;;5.34;87.04
81641;BME280;74020;50.722;-1.944;2024-03-23T02:51:10;101236.18;;;5.42;86.86
81641;BME280;74020;50.722;-1.944;2024-03-23T02:53:36;101234.19;;;5.55;86.23
81641;BME280;74020;50.722;-1.944;2024-03-23T02:56:01;101234.24;;;5.53;86.19
81641;BME280;74020;50.722;-1.944;2024-03-23T02:58:27;101236.11;;;5.56;86.33
81641;BME280;74020;50.722;-1.944;2024-03-23T03:00:52;101231.28;;;5.55;85.77
81641;BME280;74020;50.722;-1.944;2024-03-23T03:03:18;101235.31;;;5.51;86.06
81641;BME280;74020;50.722;-1.944;2024-03-23T03:05:44;101237.26;;;5.34;87.37
81641;BME280;74020;50.722;-1.944;2024-03-23T03:08:09;101235.47;;;5.30;88.15
81641;BME280;74020;50.722;-1.944;2024-03-23T03:10:35;101237.00;;;5.45;86.71
81641;BME280;74020;50.722;-1.944;2024-03-23T03:13:00;101232.49;;;5.55;86.55
81641;BME280;74020;50.722;-1.944;2024-03-23T03:15:26;101232.95;;;5.39;86.79
81641;BME280;74020;50.722;-1.944;2024-03-23T03:17:51;101235.23;;;5.20;88.29
81641;BME280;74020;50.722;-1.944;2024-03-23T03:20:17;101236.24;;;5.46;86.17
81641;BME280;74020;50.722;-1.944;2024-03-23T03:22:43;101236.19;;;5.55;85.64
81641;BME280;74020;50.722;-1.944;2024-03-23T03:25:08;101233.91;;;5.36;86.52
81641;BME280;74020;50.722;-1.944;2024-03-23T03:27:34;101233.60;;;5.39;86.52
81641;BME280;74020;50.722;-1.944;2024-03-23T03:30:00;101235.63;;;5.32;86.37
81641;BME280;74020;50.722;-1.944;2024-03-23T03:32:25;101234.55;;;5.30;86.99
81641;BME280;74020;50.722;-1.944;2024-03-23T03:34:51;101231.00;;;5.19;87.71
81641;BME280;74020;50.722;-1.944;2024-03-23T03:39:42;101219.67;;;5.12;88.01
81641;BME280;74020;50.722;-1.944;2024-03-23T03:42:08;101226.11;;;5.28;87.46
81641;BME280;74020;50.722;-1.944;2024-03-23T03:44:33;101227.98;;;5.32;86.58
81641;BME280;74020;50.722;-1.944;2024-03-23T03:46:59;101226.41;;;5.14;87.83
81641;BME280;74020;50.722;-1.944;2024-03-23T03:49:24;101229.60;;;5.19;87.02
81641;BME280;74020;50.722;-1.944;2024-03-23T03:51:50;101233.33;;;5.13;87.52
81641;BME280;74020;50.722;-1.944;2024-03-23T03:54:15;101236.42;;;5.11;87.97
81641;BME280;74020;50.722;-1.944;2024-03-23T03:56:41;101232.65;;;5.19;87.48
81641;BME280;74020;50.722;-1.944;2024-03-23T03:59:07;101229.98;;;5.08;87.91
81641;BME280;74020;50.722;-1.944;2024-03-23T04:01:32;101227.71;;;5.03;87.79
81641;BME280;74020;50.722;-1.944;2024-03-23T04:03:58;101231.05;;;5.17;86.87
81641;BME280;74020;50.722;-1.944;2024-03-23T04:06:28;101233.51;;;5.17;86.69
81641;BME280;74020;50.722;-1.944;2024-03-23T04:08:49;101233.89;;;5.14;86.98
81641;BME280;74020;50.722;-1.944;2024-03-23T04:11:15;101232.21;;;5.10;87.31
81641;BME280;74020;50.722;-1.944;2024-03-23T04:13:40;101240.74;;;4.91;88.54
81641;BME280;74020;50.722;-1.944;2024-03-23T04:16:06;101237.42;;;5.17;87.26
81641;BME280;74020;50.722;-1.944;2024-03-23T04:18:32;101234.80;;;5.08;87.53
81641;BME280;74020;50.722;-1.944;2024-03-23T04:20:57;101232.64;;;5.01;87.50
81641;BME280;74020;50.722;-1.944;2024-03-23T04:23:23;101234.68;;;5.02;87.63
81641;BME280;74020;50.722;-1.944;2024-03-23T04:25:48;101238.30;;;4.98;87.67
81641;BME280;74020;50.722;-1.944;2024-03-23T04:28:14;101233.42;;;5.11;87.27
81641;BME280;74020;50.722;-1.944;2024-03-23T04:30:40;101233.01;;;5.17;87.37
81641;BME280;74020;50.722;-1.944;2024-03-23T04:33:05;101233.44;;;5.11;87.30
81641;BME280;74020;50.722;-1.944;2024-03-23T04:35:31;101234.51;;;5.09;87.71
81641;BME280;74020;50.722;-1.944;2024-03-23T04:37:57;101235.71;;;5.22;87.37
81641;BME280;74020;50.722;-1.944;2024-03-23T04:40:22;101232.11;;;5.31;86.36
81641;BME280;74020;50.722;-1.944;2024-03-23T04:42:48;101228.89;;;5.28;86.58
81641;BME280;74020;50.722;-1.944;2024-03-23T04:45:13;101220.25;;;5.35;85.61
81641;BME280;74020;50.722;-1.944;2024-03-23T04:47:40;101218.51;;;5.34;85.87
81641;BME280;74020;50.722;-1.944;2024-03-23T04:50:05;101217.88;;;5.30;86.19
81641;BME280;74020;50.722;-1.944;2024-03-23T04:52:31;101218.58;;;5.29;86.10
81641;BME280;74020;50.722;-1.944;2024-03-23T04:54:58;101219.09;;;5.26;86.60
81641;BME280;74020;50.722;-1.944;2024-03-23T04:57:22;101220.23;;;5.25;86.08
81641;BME280;74020;50.722;-1.944;2024-03-23T04:59:47;101212.67;;;5.38;85.28
81641;BME280;74020;50.722;-1.944;2024-03-23T05:02:12;101212.26;;;5.30;85.58
81641;BME280;74020;50.722;-1.944;2024-03-23T05:04:38;101217.52;;;5.46;84.86
81641;BME280;74020;50.722;-1.944;2024-03-23T05:07:04;101214.58;;;5.48;84.29
81641;BME280;74020;50.722;-1.944;2024-03-23T05:09:29;101216.45;;;5.53;83.56
81641;BME280;74020;50.722;-1.944;2024-03-23T05:11:55;101216.08;;;5.53;83.87
81641;BME280;74020;50.722;-1.944;2024-03-23T05:14:20;101210.00;;;5.59;83.69
81641;BME280;74020;50.722;-1.944;2024-03-23T05:16:46;101210.61;;;5.48;84.29
81641;BME280;74020;50.722;-1.944;2024-03-23T05:19:12;101209.72;;;5.49;84.07
81641;BME280;74020;50.722;-1.944;2024-03-23T05:21:37;101204.41;;;5.54;84.05
81641;BME280;74020;50.722;-1.944;2024-03-23T05:24:03;101202.86;;;5.56;84.59
81641;BME280;74020;50.722;-1.944;2024-03-23T05:26:28;101204.00;;;5.39;85.18
81641;BME280;74020;50.722;-1.944;2024-03-23T05:28:54;101203.48;;;5.25;86.14
81641;BME280;74020;50.722;-1.944;2024-03-23T05:31:23;101200.72;;;5.23;85.94
81641;BME280;74020;50.722;-1.944;2024-03-23T05:33:45;101190.65;;;5.37;85.16
81641;BME280;74020;50.722;-1.944;2024-03-23T05:36:11;101195.51;;;5.38;85.93
81641;BME280;74020;50.722;-1.944;2024-03-23T05:38:36;101195.12;;;5.29;86.03
81641;BME280;74020;50.722;-1.944;2024-03-23T05:41:02;101193.18;;;5.29;86.36
81641;BME280;74020;50.722;-1.944;2024-03-23T05:43:28;101200.47;;;5.24;87.45
81641;BME280;74020;50.722;-1.944;2024-03-23T05:45:54;101196.51;;;5.24;87.05
81641;BME280;74020;50.722;-1.944;2024-03-23T05:48:19;101201.28;;;5.28;86.48
81641;BME280;74020;50.722;-1.944;2024-03-23T05:50:44;101198.86;;;5.21;86.71
81641;BME280;74020;50.722;-1.944;2024-03-23T05:53:10;101197.71;;;5.34;85.77
81641;BME280;74020;50.722;-1.944;2024-03-23T05:55:35;101199.47;;;5.25;86.79
81641;BME280;74020;50.722;-1.944;2024-03-23T05:58:01;101196.63;;;5.30;86.53
81641;BME280;74020;50.722;-1.944;2024-03-23T06:00:26;101195.23;;;5.07;88.45
81641;BME280;74020;50.722;-1.944;2024-03-23T06:02:52;101189.42;;;5.12;88.27
81641;BME280;74020;50.722;-1.944;2024-03-23T06:05:18;101185.81;;;5.11;88.34
81641;BME280;74020;50.722;-1.944;2024-03-23T06:07:43;101188.44;;;5.14;88.43
81641;BME280;74020;50.722;-1.944;2024-03-23T06:10:09;101189.84;;;5.21;87.77
81641;BME280;74020;50.722;-1.944;2024-03-23T06:12:35;101187.23;;;5.21;88.03
81641;BME280;74020;50.722;-1.944;2024-03-23T06:15:00;101186.09;;;5.15;88.07
81641;BME280;74020;50.722;-1.944;2024-03-23T06:17:26;101187.47;;;4.87;89.93
81641;BME280;74020;50.722;-1.944;2024-03-23T06:19:51;101183.14;;;4.85;90.13
81641;BME280;74020;50.722;-1.944;2024-03-23T06:22:17;101184.40;;;5.02;89.38
81641;BME280;74020;50.722;-1.944;2024-03-23T06:24:43;101183.22;;;5.01;89.29
81641;BME280;74020;50.722;-1.944;2024-03-23T06:27:08;101187.34;;;5.06;89.22
81641;BME280;74020;50.722;-1.944;2024-03-23T06:29:34;101184.41;;;5.08;89.34
81641;BME280;74020;50.722;-1.944;2024-03-23T06:32:00;101187.89;;;5.10;89.33
81641;BME280;74020;50.722;-1.944;2024-03-23T06:34:25;101185.24;;;5.14;89.33
81641;BME280;74020;50.722;-1.944;2024-03-23T06:36:51;101184.77;;;5.13;88.80
81641;BME280;74020;50.722;-1.944;2024-03-23T06:39:16;101184.61;;;5.22;88.38
81641;BME280;74020;50.722;-1.944;2024-03-23T06:41:42;101188.86;;;5.06;89.85
81641;BME280;74020;50.722;-1.944;2024-03-23T06:44:08;101188.85;;;5.28;88.46
81641;BME280;74020;50.722;-1.944;2024-03-23T06:46:33;101187.22;;;5.26;88.69
81641;BME280;74020;50.722;-1.944;2024-03-23T06:48:59;101183.59;;;5.24;88.98
81641;BME280;74020;50.722;-1.944;2024-03-23T06:51:24;101178.34;;;5.48;88.15
81641;BME280;74020;50.722;-1.944;2024-03-23T06:53:50;101171.81;;;5.36;88.49
81641;BME280;74020;50.722;-1.944;2024-03-23T06:56:16;101171.03;;;5.47;88.53
81641;BME280;74020;50.722;-1.944;2024-03-23T06:58:41;101171.81;;;5.38;89.31
81641;BME280;74020;50.722;-1.944;2024-03-23T07:01:07;101169.41;;;5.55;88.52
81641;BME280;74020;50.722;-1.944;2024-03-23T07:03:32;101161.84;;;5.37;88.83
81641;BME280;74020;50.722;-1.944;2024-03-23T07:05:58;101160.11;;;5.37;89.75
81641;BME280;74020;50.722;-1.944;2024-03-23T07:08:24;101156.98;;;5.42;89.02
81641;BME280;74020;50.722;-1.944;2024-03-23T07:10:49;101145.41;;;5.32;90.03
81641;BME280;74020;50.722;-1.944;2024-03-23T07:13:15;101146.08;;;5.33;89.22
81641;BME280;74020;50.722;-1.944;2024-03-23T07:15:40;101146.80;;;5.53;87.60
81641;BME280;74020;50.722;-1.944;2024-03-23T07:18:05;101144.83;;;5.69;86.30
81641;BME280;74020;50.722;-1.944;2024-03-23T07:20:31;101141.24;;;5.60;86.52
81641;BME280;74020;50.722;-1.944;2024-03-23T07:22:57;101132.26;;;5.84;85.59
81641;BME280;74020;50.722;-1.944;2024-03-23T07:25:22;101138.22;;;5.84;85.20
81641;BME280;74020;50.722;-1.944;2024-03-23T07:27:48;101137.73;;;5.93;85.19
81641;BME280;74020;50.722;-1.944;2024-03-23T07:30:13;101131.53;;;5.94;84.97
81641;BME280;74020;50.722;-1.944;2024-03-23T07:32:39;101127.07;;;5.92;84.98
81641;BME280;74020;50.722;-1.944;2024-03-23T07:35:05;101124.10;;;5.91;85.29
81641;BME280;74020;50.722;-1.944;2024-03-23T07:37:30;101127.39;;;5.86;85.63
81641;BME280;74020;50.722;-1.944;2024-03-23T07:39:55;101127.49;;;6.02;84.64
81641;BME280;74020;50.722;-1.944;2024-03-23T07:42:21;101128.13;;;6.09;84.54
81641;BME280;74020;50.722;-1.944;2024-03-23T07:44:51;101122.50;;;6.05;84.23
81641;BME280;74020;50.722;-1.944;2024-03-23T07:47:12;101118.38;;;6.10;84.92
81641;BME280;74020;50.722;-1.944;2024-03-23T07:49:38;101116.82;;;6.13;84.27
81641;BME280;74020;50.722;-1.944;2024-03-23T07:52:04;101117.90;;;6.20;83.05
81641;BME280;74020;50.722;-1.944;2024-03-23T07:54:29;101112.24;;;6.19;82.98
81641;BME280;74020;50.722;-1.944;2024-03-23T07:56:54;101107.62;;;6.35;82.42
81641;BME280;74020;50.722;-1.944;2024-03-23T07:59:20;101107.31;;;6.51;81.42
81641;BME280;74020;50.722;-1.944;2024-03-23T08:01:45;101107.56;;;6.53;80.23
81641;BME280;74020;50.722;-1.944;2024-03-23T08:04:12;101113.22;;;6.45;80.83
81641;BME280;74020;50.722;-1.944;2024-03-23T08:06:38;101113.17;;;6.59;80.35
81641;BME280;74020;50.722;-1.944;2024-03-23T08:09:02;101120.54;;;6.66;79.74
81641;BME280;74020;50.722;-1.944;2024-03-23T08:11:28;101117.67;;;6.79;79.70
81641;BME280;74020;50.722;-1.944;2024-03-23T08:13:53;101110.85;;;6.78;78.52
81641;BME280;74020;50.722;-1.944;2024-03-23T08:16:19;101115.48;;;6.80;78.39
81641;BME280;74020;50.722;-1.944;2024-03-23T08:18:44;101112.65;;;6.81;78.76
81641;BME280;74020;50.722;-1.944;2024-03-23T08:21:10;101112.48;;;6.83;78.32
81641;BME280;74020;50.722;-1.944;2024-03-23T08:23:36;101105.02;;;6.99;77.27
81641;BME280;74020;50.722;-1.944;2024-03-23T08:26:01;101109.61;;;7.08;77.29
81641;BME280;74020;50.722;-1.944;2024-03-23T08:28:27;101103.08;;;7.16;76.97
81641;BME280;74020;50.722;-1.944;2024-03-23T08:30:52;101101.56;;;7.11;76.81
81641;BME280;74020;50.722;-1.944;2024-03-23T08:33:17;101114.36;;;7.29;75.41
81641;BME280;74020;50.722;-1.944;2024-03-23T08:35:43;101111.81;;;7.30;75.61
81641;BME280;74020;50.722;-1.944;2024-03-23T08:38:08;101109.62;;;7.38;75.20
81641;BME280;74020;50.722;-1.944;2024-03-23T08:40:34;101109.85;;;7.53;74.51
81641;BME280;74020;50.722;-1.944;2024-03-23T08:42:59;101097.40;;;7.60;73.92
81641;BME280;74020;50.722;-1.944;2024-03-23T08:45:25;101090.29;;;7.50;73.37
81641;BME280;74020;50.722;-1.944;2024-03-23T08:47:50;101094.76;;;7.60;73.23
81641;BME280;74020;50.722;-1.944;2024-03-23T08:50:16;101100.05;;;7.69;73.11
81641;BME280;74020;50.722;-1.944;2024-03-23T08:52:41;101084.73;;;7.69;73.34
81641;BME280;74020;50.722;-1.944;2024-03-23T08:55:08;101083.08;;;7.77;72.95
81641;BME280;74020;50.722;-1.944;2024-03-23T08:57:32;101071.99;;;7.64;74.11
81641;BME280;74020;50.722;-1.944;2024-03-23T08:59:58;101072.34;;;7.85;72.25
81641;BME280;74020;50.722;-1.944;2024-03-23T09:02:23;101066.65;;;7.80;72.20
81641;BME280;74020;50.722;-1.944;2024-03-23T09:04:49;101073.47;;;7.89;71.59
81641;BME280;74020;50.722;-1.944;2024-03-23T09:07:14;101061.31;;;7.93;70.36
81641;BME280;74020;50.722;-1.944;2024-03-23T09:09:40;101061.90;;;8.14;70.78
81641;BME280;74020;50.722;-1.944;2024-03-23T09:12:06;101049.03;;;8.21;69.08
81641;BME280;74020;50.722;-1.944;2024-03-23T09:14:31;101061.42;;;8.26;67.88
81641;BME280;74020;50.722;-1.944;2024-03-23T09:16:56;101065.79;;;8.28;68.28
81641;BME280;74020;50.722;-1.944;2024-03-23T09:19:22;101066.06;;;8.32;68.28
81641;BME280;74020;50.722;-1.944;2024-03-23T09:21:47;101060.75;;;8.40;68.13
81641;BME280;74020;50.722;-1.944;2024-03-23T09:24:13;101070.36;;;8.38;67.54
81641;BME280;74020;50.722;-1.944;2024-03-23T09:26:38;101061.92;;;8.48;68.30
81641;BME280;74020;50.722;-1.944;2024-03-23T09:29:04;101058.65;;;8.54;68.16
81641;BME280;74020;50.722;-1.944;2024-03-23T09:31:29;101052.61;;;8.78;67.19
81641;BME280;74020;50.722;-1.944;2024-03-23T09:33:55;101046.74;;;8.73;66.08
81641;BME280;74020;50.722;-1.944;2024-03-23T09:36:20;101037.96;;;8.80;66.57
81641;BME280;74020;50.722;-1.944;2024-03-23T09:38:45;101044.68;;;8.78;64.58
81641;BME280;74020;50.722;-1.944;2024-03-23T09:41:11;101038.49;;;8.95;63.16
81641;BME280;74020;50.722;-1.944;2024-03-23T09:43:36;101030.24;;;9.00;63.68
81641;BME280;74020;50.722;-1.944;2024-03-23T09:46:02;101027.32;;;9.12;64.74
81641;BME280;74020;50.722;-1.944;2024-03-23T09:48:27;101030.84;;;9.38;63.87
81641;BME280;74020;50.722;-1.944;2024-03-23T09:50:53;101021.37;;;9.33;64.44
81641;BME280;74020;50.722;-1.944;2024-03-23T09:53:18;101018.80;;;9.55;64.21
81641;BME280;74020;50.722;-1.944;2024-03-23T09:55:45;101018.51;;;9.57;63.01
81641;BME280;74020;50.722;-1.944;2024-03-23T09:58:12;101004.32;;;9.42;61.66
81641;BME280;74020;50.722;-1.944;2024-03-23T10:00:35;100997.25;;;9.44;61.29
81641;BME280;74020;50.722;-1.944;2024-03-23T10:03:01;101000.65;;;9.40;62.42
81641;BME280;74020;50.722;-1.944;2024-03-23T10:05:25;101000.87;;;9.58;62.01
81641;BME280;74020;50.722;-1.944;2024-03-23T10:07:51;101015.41;;;9.23;62.44
81641;BME280;74020;50.722;-1.944;2024-03-23T10:10:17;101005.34;;;9.39;60.82
81641;BME280;74020;50.722;-1.944;2024-03-23T10:12:44;101010.83;;;9.20;59.80
81641;BME280;74020;50.722;-1.944;2024-03-23T10:15:15;101013.19;;;9.13;59.81
81641;BME280;74020;50.722;-1.944;2024-03-23T10:17:33;101015.48;;;9.33;59.72
81641;BME280;74020;50.722;-1.944;2024-03-23T10:19:58;101015.62;;;9.26;60.96
81641;BME280;74020;50.722;-1.944;2024-03-23T10:22:23;101019.44;;;9.33;58.69
81641;BME280;74020;50.722;-1.944;2024-03-23T10:24:49;101015.30;;;8.95;60.64
81641;BME280;74020;50.722;-1.944;2024-03-23T10:27:16;101006.75;;;8.76;62.33
81641;BME280;74020;50.722;-1.944;2024-03-23T10:29:40;101001.56;;;8.64;63.54
81641;BME280;74020;50.722;-1.944;2024-03-23T10:32:09;100987.43;;;8.99;63.42
81641;BME280;74020;50.722;-1.944;2024-03-23T10:34:31;100994.75;;;9.31;63.48
81641;BME280;74020;50.722;-1.944;2024-03-23T10:36:56;100992.22;;;9.54;62.97
81641;BME280;74020;50.722;-1.944;2024-03-23T10:39:22;100982.21;;;9.51;63.41
81641;BME280;74020;50.722;-1.944;2024-03-23T10:41:50;100987.08;;;9.27;64.24
81641;BME280;74020;50.722;-1.944;2024-03-23T10:44:13;100969.89;;;9.23;64.51
81641;BME280;74020;50.722;-1.944;2024-03-23T10:46:38;100979.01;;;9.26;64.13
81641;BME280;74020;50.722;-1.944;2024-03-23T10:49:03;100984.38;;;9.49;63.78
81641;BME280;74020;50.722;-1.944;2024-03-23T10:51:29;100967.13;;;9.46;63.56
81641;BME280;74020;50.722;-1.944;2024-03-23T10:53:56;100970.21;;;9.53;63.40
81641;BME280;74020;50.722;-1.944;2024-03-23T10:56:20;100965.30;;;9.38;63.35
81641;BME280;74020;50.722;-1.944;2024-03-23T10:58:48;100971.76;;;9.38;64.44
81641;BME280;74020;50.722;-1.944;2024-03-23T11:01:11;100965.00;;;9.00;65.23
81641;BME280;74020;50.722;-1.944;2024-03-23T11:03:37;100958.49;;;8.98;65.18
81641;BME280;74020;50.722;-1.944;2024-03-23T11:06:02;100956.06;;;8.93;66.02
81641;BME280;74020;50.722;-1.944;2024-03-23T11:08:31;100951.37;;;9.12;66.24
81641;BME280;74020;50.722;-1.944;2024-03-23T11:10:52;100941.50;;;9.21;65.37
81641;BME280;74020;50.722;-1.944;2024-03-23T11:13:22;100937.40;;;9.37;64.98
81641;BME280;74020;50.722;-1.944;2024-03-23T11:15:43;100941.38;;;9.39;64.19
81641;BME280;74020;50.722;-1.944;2024-03-23T11:18:08;100940.79;;;9.50;63.71
81641;BME280;74020;50.722;-1.944;2024-03-23T11:20:34;100941.09;;;9.17;64.90
81641;BME280;74020;50.722;-1.944;2024-03-23T11:22:59;100931.24;;;9.46;63.59
81641;BME280;74020;50.722;-1.944;2024-03-23T11:25:26;100932.52;;;9.61;62.68
81641;BME280;74020;50.722;-1.944;2024-03-23T11:27:51;100927.06;;;9.38;64.46
81641;BME280;74020;50.722;-1.944;2024-03-23T11:30:17;100926.07;;;9.37;65.53
81641;BME280;74020;50.722;-1.944;2024-03-23T11:32:42;100924.03;;;9.44;65.20
81641;BME280;74020;50.722;-1.944;2024-03-23T11:35:07;100917.05;;;9.40;64.73
81641;BME280;74020;50.722;-1.944;2024-03-23T11:37:32;100932.40;;;9.40;64.36
81641;BME280;74020;50.722;-1.944;2024-03-23T11:39:57;100926.83;;;9.33;64.11
81641;BME280;74020;50.722;-1.944;2024-03-23T11:42:23;100925.75;;;9.27;64.96
81641;BME280;74020;50.722;-1.944;2024-03-23T11:44:48;100921.99;;;9.35;65.04
81641;BME280;74020;50.722;-1.944;2024-03-23T11:47:14;100920.50;;;9.19;67.80
81641;BME280;74020;50.722;-1.944;2024-03-23T11:49:39;100932.09;;;9.14;70.61
81641;BME280;74020;50.722;-1.944;2024-03-23T11:52:05;100929.91;;;8.57;77.40
81641;BME280;74020;50.722;-1.944;2024-03-23T11:54:30;100933.02;;;8.67;80.91
81641;BME280;74020;50.722;-1.944;2024-03-23T11:56:57;100916.34;;;8.77;81.64
81641;BME280;74020;50.722;-1.944;2024-03-23T11:59:31;100911.87;;;8.65;79.62
81641;BME280;74020;50.722;-1.944;2024-03-23T12:01:46;100910.33;;;8.79;79.45
81641;BME280;74020;50.722;-1.944;2024-03-23T12:04:12;100905.34;;;8.93;77.59
81641;BME280;74020;50.722;-1.944;2024-03-23T12:06:37;100902.76;;;8.92;75.81
81641;BME280;74020;50.722;-1.944;2024-03-23T12:09:06;100900.98;;;8.73;76.79
81641;BME280;74020;50.722;-1.944;2024-03-23T12:11:28;100896.73;;;8.76;76.53
81641;BME280;74020;50.722;-1.944;2024-03-23T12:13:59;100898.42;;;9.09;75.19
81641;BME280;74020;50.722;-1.944;2024-03-23T12:16:20;100887.34;;;8.92;74.73
81641;BME280;74020;50.722;-1.944;2024-03-23T12:18:48;100874.35;;;9.20;70.45
81641;BME280;74020;50.722;-1.944;2024-03-23T12:21:10;100866.01;;;9.25;70.10
81641;BME280;74020;50.722;-1.944;2024-03-23T12:23:38;100882.11;;;9.19;70.03
81641;BME280;74020;50.722;-1.944;2024-03-23T12:26:01;100875.71;;;9.48;66.86
81641;BME280;74020;50.722;-1.944;2024-03-23T12:28:27;100875.72;;;9.50;66.75
81641;BME280;74020;50.722;-1.944;2024-03-23T12:30:52;100879.08;;;9.69;67.25
81641;BME280;74020;50.722;-1.944;2024-03-23T12:33:17;100890.73;;;9.95;61.78
81641;BME280;74020;50.722;-1.944;2024-03-23T12:35:43;100863.52;;;9.71;62.14
81641;BME280;74020;50.722;-1.944;2024-03-23T12:38:08;100855.00;;;9.88;60.82
81641;BME280;74020;50.722;-1.944;2024-03-23T12:40:34;100851.11;;;10.06;61.84
81641;BME280;74020;50.722;-1.944;2024-03-23T12:42:59;100850.35;;;10.14;61.82
81641;BME280;74020;50.722;-1.944;2024-03-23T12:45:25;100850.35;;;10.03;61.46
81641;BME280;74020;50.722;-1.944;2024-03-23T12:47:50;100873.78;;;9.50;64.89
81641;BME280;74020;50.722;-1.944;2024-03-23T12:50:16;100856.56;;;9.05;72.96
81641;BME280;74020;50.722;-1.944;2024-03-23T12:52:41;100840.40;;;8.72;79.36
81641;BME280;74020;50.722;-1.944;2024-03-23T12:55:07;100843.34;;;8.70;79.20
81641;BME280;74020;50.722;-1.944;2024-03-23T12:57:32;100837.47;;;8.42;82.52
81641;BME280;74020;50.722;-1.944;2024-03-23T12:59:57;100838.01;;;8.55;82.84
81641;BME280;74020;50.722;-1.944;2024-03-23T13:02:23;100839.41;;;8.69;83.26
81641;BME280;74020;50.722;-1.944;2024-03-23T13:04:50;100834.89;;;8.82;84.53
81641;BME280;74020;50.722;-1.944;2024-03-23T13:07:14;100832.42;;;9.01;86.00
81641;BME280;74020;50.722;-1.944;2024-03-23T13:09:39;100833.09;;;9.07;82.33
81641;BME280;74020;50.722;-1.944;2024-03-23T13:12:05;100839.66;;;9.01;81.34
81641;BME280;74020;50.722;-1.944;2024-03-23T13:14:30;100845.21;;;9.10;83.11
81641;BME280;74020;50.722;-1.944;2024-03-23T13:16:56;100844.40;;;9.09;84.40
81641;BME280;74020;50.722;-1.944;2024-03-23T13:19:21;100823.60;;;8.45;83.95
81641;BME280;74020;50.722;-1.944;2024-03-23T13:21:46;100847.18;;;8.14;84.91
81641;BME280;74020;50.722;-1.944;2024-03-23T13:24:12;100853.82;;;8.20;79.68
81641;BME280;74020;50.722;-1.944;2024-03-23T13:26:37;100852.02;;;8.39;79.47
81641;BME280;74020;50.722;-1.944;2024-03-23T13:29:03;100845.32;;;8.41;79.27
81641;BME280;74020;50.722;-1.944;2024-03-23T13:31:28;100836.23;;;8.53;83.10
81641;BME280;74020;50.722;-1.944;2024-03-23T13:33:54;100833.90;;;8.47;79.61